createdAt,value
2022-12-23T00:01:32.659Z,20.67
2022-12-23T00:04:03.579Z,20.67
2022-12-23T00:06:34.319Z,20.66
2022-12-23T00:09:05.259Z,20.67
2022-12-23T00:11:35.940Z,20.65
2022-12-23T00:14:24.556Z,20.64
2022-12-23T00:16:55.481Z,20.61
2022-12-23T00:19:26.350Z,20.60
2022-12-23T00:21:57.062Z,20.59
2022-12-23T00:24:27.906Z,20.58
2022-12-23T00:26:58.539Z,20.56
2022-12-23T00:29:29.283Z,20.54
2022-12-23T00:32:00.026Z,20.53
2022-12-23T00:34:30.792Z,20.53
2022-12-23T00:37:01.457Z,20.51
2022-12-23T00:39:54.625Z,20.49
2022-12-23T00:42:43.588Z,20.44
2022-12-23T00:45:17.077Z,20.42
2022-12-23T00:48:06.785Z,20.41
2022-12-23T00:50:39.446Z,20.37
2022-12-23T00:53:10.432Z,20.35
2022-12-23T00:55:41.123Z,20.34
2022-12-23T00:58:11.841Z,20.33
2022-12-23T01:01:00.731Z,20.32
2022-12-23T01:03:49.509Z,20.31
2022-12-23T01:06:20.554Z,20.31
2022-12-23T01:08:51.159Z,20.32
2022-12-23T01:11:21.837Z,20.33
2022-12-23T01:13:52.541Z,20.35
2022-12-23T01:16:23.317Z,20.36
2022-12-23T01:18:54.048Z,20.40
2022-12-23T01:21:24.706Z,20.39
2022-12-23T01:23:55.460Z,20.40
2022-12-23T01:26:26.274Z,20.40
2022-12-23T01:28:58.147Z,20.38
2022-12-23T01:31:30.193Z,20.36
2022-12-23T01:34:00.980Z,20.33
2022-12-23T01:36:32.136Z,20.30
2022-12-23T01:39:02.942Z,20.25
2022-12-23T01:41:52.348Z,20.23
2022-12-23T01:44:55.034Z,20.20
2022-12-23T01:47:35.320Z,20.19
2022-12-23T01:50:10.820Z,20.18
2022-12-23T01:52:47.152Z,20.18
2022-12-23T01:55:24.533Z,20.17
2022-12-23T01:57:57.823Z,20.14
2022-12-23T02:00:46.250Z,20.15
2022-12-23T02:03:34.588Z,20.15
2022-12-23T02:06:20.095Z,20.13
2022-12-23T02:09:08.485Z,20.11
2022-12-23T02:11:54.715Z,20.10
2022-12-23T02:14:57.992Z,20.08
2022-12-23T02:17:36.728Z,20.06
2022-12-23T02:20:37.789Z,20.06
2022-12-23T02:23:27.556Z,20.06
2022-12-23T02:26:19.110Z,20.07
2022-12-23T02:29:24.127Z,20.08
2022-12-23T02:32:02.776Z,20.08
2022-12-23T02:34:42.028Z,20.08
2022-12-23T02:37:19.817Z,20.07
2022-12-23T02:39:57.099Z,20.06
2022-12-23T02:42:34.553Z,20.01
2022-12-23T02:45:11.993Z,20.03
2022-12-23T02:47:47.788Z,20.02
2022-12-23T02:50:24.328Z,20.02
2022-12-23T02:52:58.395Z,20.01
2022-12-23T02:55:34.098Z,20.03
2022-12-23T02:58:11.643Z,20.02
2022-12-23T03:00:44.616Z,20.00
2022-12-23T03:03:17.227Z,20.00
2022-12-23T03:05:50.367Z,20.01
2022-12-23T03:08:25.659Z,19.99
2022-12-23T03:11:09.708Z,19.94
2022-12-23T03:14:04.684Z,19.99
2022-12-23T03:16:44.002Z,20.04
2022-12-23T03:19:22.617Z,20.09
2022-12-23T03:22:01.685Z,20.17
2022-12-23T03:24:40.680Z,20.24
2022-12-23T03:27:17.454Z,20.32
2022-12-23T03:29:56.001Z,20.35
2022-12-23T03:32:29.569Z,20.39
2022-12-23T03:35:03.291Z,20.43
2022-12-23T03:37:34.035Z,20.46
2022-12-23T03:40:11.997Z,20.46
2022-12-23T03:42:46.591Z,20.51
2022-12-23T03:45:39.903Z,20.54
2022-12-23T03:48:17.509Z,20.55
2022-12-23T03:50:50.904Z,20.59
2022-12-23T03:53:28.902Z,20.61
2022-12-23T03:56:05.045Z,20.64
2022-12-23T03:58:42.879Z,20.65
2022-12-23T04:01:20.076Z,20.67
2022-12-23T04:04:01.336Z,20.68
2022-12-23T04:06:43.552Z,20.68
2022-12-23T04:09:21.522Z,20.68
2022-12-23T04:11:53.602Z,20.68
2022-12-23T04:14:25.356Z,20.67
2022-12-23T04:16:59.353Z,20.72
2022-12-23T04:19:30.220Z,20.76
2022-12-23T04:22:01.091Z,20.76
2022-12-23T04:24:31.979Z,20.77
2022-12-23T04:27:02.651Z,20.77
2022-12-23T04:29:35.964Z,20.77
2022-12-23T04:32:07.245Z,20.78
2022-12-23T04:34:38.215Z,20.78
2022-12-23T04:37:09.117Z,20.79
2022-12-23T04:39:40.066Z,20.79
2022-12-23T04:42:11.022Z,20.79
2022-12-23T04:44:41.612Z,20.79
2022-12-23T04:47:12.327Z,20.79
2022-12-23T04:49:42.931Z,20.79
2022-12-23T04:52:13.658Z,20.77
2022-12-23T04:54:46.451Z,20.77
2022-12-23T04:57:17.873Z,20.75
2022-12-23T04:59:48.458Z,20.74
2022-12-23T05:02:19.241Z,20.71
2022-12-23T05:04:50.262Z,20.68
2022-12-23T05:07:21.103Z,20.66
2022-12-23T05:09:51.771Z,20.66
2022-12-23T05:12:22.497Z,20.65
2022-12-23T05:14:53.298Z,20.65
2022-12-23T05:17:24.248Z,20.63
2022-12-23T05:19:54.910Z,20.60
2022-12-23T05:22:25.636Z,20.60
2022-12-23T05:24:56.360Z,20.57
2022-12-23T05:27:27.010Z,20.54
2022-12-23T05:29:57.734Z,20.49
2022-12-23T05:32:28.543Z,20.45
2022-12-23T05:34:59.308Z,20.42
2022-12-23T05:37:30.051Z,20.39
2022-12-23T05:40:00.695Z,20.31
2022-12-23T05:42:31.633Z,20.34
2022-12-23T05:45:02.306Z,20.33
2022-12-23T05:47:33.179Z,20.32
2022-12-23T05:50:04.151Z,20.30
2022-12-23T05:52:35.350Z,20.28
2022-12-23T05:55:06.695Z,20.25
2022-12-23T05:57:37.376Z,20.23
2022-12-23T06:00:10.660Z,20.20
2022-12-23T06:02:41.531Z,20.18
2022-12-23T06:05:13.604Z,20.18
2022-12-23T06:07:44.681Z,20.16
2022-12-23T06:10:15.459Z,20.15
2022-12-23T06:12:46.156Z,20.13
2022-12-23T06:15:17.474Z,20.12
2022-12-23T06:17:48.554Z,20.10
2022-12-23T06:20:20.917Z,20.09
2022-12-23T06:22:52.185Z,20.08
2022-12-23T06:25:23.171Z,20.07
2022-12-23T06:27:53.821Z,20.03
2022-12-23T06:30:24.524Z,20.01
2022-12-23T06:32:55.286Z,19.99
2022-12-23T06:35:26.150Z,19.98
2022-12-23T06:37:56.822Z,19.96
2022-12-23T06:40:29.268Z,19.95
2022-12-23T06:43:00.181Z,19.94
2022-12-23T06:45:31.290Z,19.93
2022-12-23T06:48:02.069Z,19.92
2022-12-23T06:50:33.014Z,19.91
2022-12-23T06:53:03.707Z,19.90
2022-12-23T06:55:34.415Z,19.89
2022-12-23T06:58:05.350Z,19.88
2022-12-23T07:00:36.178Z,19.87
2022-12-23T07:03:07.068Z,19.85
2022-12-23T07:05:38.261Z,19.85
2022-12-23T07:08:09.564Z,19.84
2022-12-23T07:10:40.353Z,19.83
2022-12-23T07:13:11.079Z,19.83
2022-12-23T07:15:42.432Z,19.78
2022-12-23T07:18:13.211Z,19.83
2022-12-23T07:20:43.952Z,19.83
2022-12-23T07:23:14.853Z,19.83
2022-12-23T07:25:45.829Z,19.83
2022-12-23T07:28:16.625Z,19.89
2022-12-23T07:30:47.644Z,19.95
2022-12-23T07:33:18.705Z,20.08
2022-12-23T07:35:49.530Z,20.17
2022-12-23T07:38:20.308Z,20.13
2022-12-23T07:40:52.987Z,20.06
2022-12-23T07:43:23.734Z,20.02
2022-12-23T07:45:59.813Z,20.02
2022-12-23T07:48:31.388Z,19.94
2022-12-23T07:51:04.901Z,19.89
2022-12-23T07:53:35.675Z,19.84
2022-12-23T07:56:07.559Z,19.76
2022-12-23T07:58:38.183Z,19.76
2022-12-23T08:01:09.342Z,19.74
2022-12-23T08:03:40.217Z,19.70
2022-12-23T08:06:13.513Z,19.67
2022-12-23T08:08:46.375Z,19.66
2022-12-23T08:11:18.160Z,19.65
2022-12-23T08:13:49.632Z,19.63
2022-12-23T08:16:20.551Z,19.64
2022-12-23T08:18:51.446Z,19.64
2022-12-23T08:21:22.450Z,19.62
2022-12-23T08:23:54.250Z,19.60
2022-12-23T08:26:26.216Z,19.58
2022-12-23T08:28:57.229Z,19.56
2022-12-23T08:31:32.043Z,19.54
2022-12-23T08:34:03.606Z,19.53
2022-12-23T08:36:36.181Z,19.54
2022-12-23T08:39:11.369Z,19.56
2022-12-23T08:41:46.197Z,19.57
2022-12-23T08:44:17.550Z,19.56
2022-12-23T08:46:48.577Z,19.55
2022-12-23T08:49:19.395Z,19.54
2022-12-23T08:51:50.798Z,19.51
2022-12-23T08:54:22.380Z,19.47
2022-12-23T08:56:53.097Z,19.42
2022-12-23T08:59:24.032Z,19.40
2022-12-23T09:01:54.835Z,19.39
2022-12-23T09:04:25.658Z,19.39
2022-12-23T09:06:56.364Z,19.38
2022-12-23T09:09:27.127Z,19.37
2022-12-23T09:11:57.929Z,19.37
2022-12-23T09:14:29.067Z,19.38
2022-12-23T09:16:59.841Z,19.40
2022-12-23T09:19:30.550Z,19.41
2022-12-23T09:22:01.432Z,19.42
2022-12-23T09:24:32.655Z,19.44
2022-12-23T09:27:03.473Z,19.46
2022-12-23T09:29:34.181Z,19.47
2022-12-23T09:32:04.951Z,19.46
2022-12-23T09:34:36.100Z,19.46
2022-12-23T09:37:06.936Z,19.45
2022-12-23T09:39:37.780Z,19.45
2022-12-23T09:42:44.966Z,19.44
2022-12-23T09:45:26.938Z,19.45
2022-12-23T09:47:58.751Z,19.45
2022-12-23T09:50:33.619Z,19.45
2022-12-23T09:53:07.815Z,19.47
2022-12-23T09:55:47.727Z,19.48
2022-12-23T09:58:28.565Z,19.50
2022-12-23T10:01:12.068Z,19.51
2022-12-23T10:04:17.042Z,19.52
2022-12-23T10:06:56.256Z,19.55
2022-12-23T10:09:31.304Z,19.58
2022-12-23T10:12:07.228Z,19.60
2022-12-23T10:14:39.217Z,19.63
2022-12-23T10:17:15.832Z,19.71
2022-12-23T10:19:49.575Z,19.80
2022-12-23T10:22:22.057Z,19.88
2022-12-23T10:24:55.257Z,19.94
2022-12-23T10:27:32.579Z,20.05
2022-12-23T10:30:33.795Z,20.13
2022-12-23T10:33:09.936Z,20.22
2022-12-23T10:35:50.015Z,20.30
2022-12-23T10:38:34.942Z,20.34
2022-12-23T10:41:13.390Z,20.38
2022-12-23T10:44:01.694Z,20.41
2022-12-23T10:46:43.281Z,20.42
2022-12-23T10:49:24.451Z,20.45
2022-12-23T10:51:59.136Z,20.48
2022-12-23T10:54:34.948Z,20.50
2022-12-23T10:57:08.376Z,20.50
2022-12-23T10:59:39.600Z,20.50
2022-12-23T11:02:31.651Z,20.50
2022-12-23T11:05:02.765Z,20.51
2022-12-23T11:07:44.550Z,20.52
2022-12-23T11:10:22.171Z,20.54
2022-12-23T11:12:54.724Z,20.55
2022-12-23T11:15:32.225Z,20.53
2022-12-23T11:18:17.649Z,20.59
2022-12-23T11:21:04.587Z,20.62
2022-12-23T11:23:37.230Z,20.63
2022-12-23T11:26:11.697Z,20.66
2022-12-23T11:28:50.782Z,20.69
2022-12-23T11:31:32.614Z,20.72
2022-12-23T11:34:05.458Z,20.75
2022-12-23T11:36:37.274Z,20.80
2022-12-23T11:39:17.890Z,20.84
2022-12-23T11:41:51.259Z,20.88
2022-12-23T11:44:27.635Z,20.92
2022-12-23T11:46:58.748Z,20.96
2022-12-23T11:49:32.513Z,21.00
2022-12-23T11:52:12.906Z,21.05
2022-12-23T11:54:54.407Z,21.10
2022-12-23T11:57:39.984Z,21.16
2022-12-23T12:00:22.851Z,21.21
2022-12-23T12:02:56.461Z,21.25
2022-12-23T12:05:30.188Z,21.30
2022-12-23T12:08:06.105Z,21.30
2022-12-23T12:10:39.068Z,21.34
2022-12-23T12:13:23.225Z,21.38
2022-12-23T12:16:04.491Z,21.40
2022-12-23T12:18:36.262Z,21.43
2022-12-23T12:21:12.388Z,21.46
2022-12-23T12:23:48.916Z,21.49
2022-12-23T12:26:26.476Z,21.52
2022-12-23T12:29:04.108Z,21.54
2022-12-23T12:31:40.831Z,21.58
2022-12-23T12:34:26.889Z,21.62
2022-12-23T12:37:02.063Z,21.67
2022-12-23T12:39:37.163Z,21.72
2022-12-23T12:42:15.994Z,21.76
2022-12-23T12:44:59.619Z,21.80
2022-12-23T12:47:53.716Z,21.84
2022-12-23T12:50:30.339Z,21.90
2022-12-23T12:53:05.157Z,21.93
2022-12-23T12:55:42.288Z,21.97
2022-12-23T12:58:19.885Z,22.00
2022-12-23T13:01:00.557Z,22.06
2022-12-23T13:03:56.625Z,22.10
2022-12-23T13:06:37.441Z,22.13
2022-12-23T13:09:17.217Z,22.15
2022-12-23T13:11:49.571Z,22.17
2022-12-23T13:14:34.852Z,22.18
2022-12-23T13:17:15.554Z,22.22
2022-12-23T13:19:52.093Z,22.25
2022-12-23T13:22:29.351Z,22.28
2022-12-23T13:25:05.178Z,22.31
2022-12-23T13:27:40.036Z,22.33
2022-12-23T13:30:15.360Z,22.34
2022-12-23T13:33:05.335Z,22.36
2022-12-23T13:35:44.609Z,22.35
2022-12-23T13:38:29.440Z,22.38
2022-12-23T13:41:09.267Z,22.42
2022-12-23T13:43:48.421Z,22.45
2022-12-23T13:46:39.215Z,22.47
2022-12-23T13:49:18.186Z,22.47
2022-12-23T13:51:55.633Z,22.47
2022-12-23T13:54:37.107Z,22.48
2022-12-23T13:57:20.837Z,22.49
2022-12-23T14:00:05.996Z,22.49
2022-12-23T14:02:53.231Z,22.50
2022-12-23T14:05:36.881Z,22.50
2022-12-23T14:08:21.244Z,22.49
2022-12-23T14:10:57.526Z,22.48
2022-12-23T14:13:31.478Z,22.48
2022-12-23T14:16:26.284Z,22.48
2022-12-23T14:19:23.496Z,22.47
2022-12-23T14:22:07.543Z,22.51
2022-12-23T14:25:21.297Z,22.56
2022-12-23T14:27:59.791Z,22.54
2022-12-23T14:30:37.394Z,22.52
2022-12-23T14:33:29.308Z,22.49
2022-12-23T14:36:14.666Z,22.46
2022-12-23T14:39:05.412Z,22.44
2022-12-23T14:41:52.068Z,22.45
2022-12-23T14:44:45.855Z,22.45
2022-12-23T14:47:40.637Z,22.46
2022-12-23T14:50:39.968Z,22.45
2022-12-23T14:53:25.424Z,22.46
2022-12-23T14:56:21.854Z,22.46
2022-12-23T14:59:15.568Z,22.44
2022-12-23T15:01:51.435Z,22.42
2022-12-23T15:04:26.119Z,22.41
2022-12-23T15:07:00.996Z,22.41
2022-12-23T15:09:36.425Z,22.39
2022-12-23T15:12:15.927Z,22.37
2022-12-23T15:14:52.012Z,22.35
2022-12-23T15:17:29.523Z,22.35
2022-12-23T15:20:13.993Z,22.34
2022-12-23T15:22:46.592Z,22.33
2022-12-23T15:25:26.217Z,22.32
2022-12-23T15:28:01.947Z,22.31
2022-12-23T15:30:35.582Z,22.31
2022-12-23T15:33:28.243Z,22.30
2022-12-23T15:36:05.922Z,22.31
2022-12-23T15:38:39.999Z,22.29
2022-12-23T15:41:18.761Z,22.28
2022-12-23T15:43:49.764Z,22.26
2022-12-23T15:46:28.993Z,22.26
2022-12-23T15:49:01.573Z,22.24
2022-12-23T15:52:05.861Z,22.22
2022-12-23T15:54:32.218Z,22.19
2022-12-23T15:57:04.794Z,22.18
2022-12-23T15:59:38.460Z,22.16
2022-12-23T16:02:58.499Z,22.16
2022-12-23T16:05:09.381Z,22.10
2022-12-23T16:07:42.234Z,22.09
2022-12-23T16:10:20.603Z,22.09
2022-12-23T16:12:53.222Z,22.08
2022-12-23T16:15:29.155Z,22.05
2022-12-23T16:18:21.282Z,22.02
2022-12-23T16:20:54.901Z,21.99
2022-12-23T16:23:30.299Z,21.97
2022-12-23T16:26:02.878Z,21.95
2022-12-23T16:28:41.041Z,21.92
2022-12-23T16:31:15.864Z,21.91
2022-12-23T16:33:50.157Z,21.91
2022-12-23T16:36:33.551Z,21.90
2022-12-23T16:39:15.281Z,21.90
2022-12-23T16:41:46.260Z,21.90
2022-12-23T16:44:17.250Z,21.80
2022-12-23T16:46:50.915Z,21.90
2022-12-23T16:49:21.403Z,21.90
2022-12-23T16:51:52.310Z,21.89
2022-12-23T16:54:23.699Z,21.90
2022-12-23T16:56:54.771Z,21.91
2022-12-23T16:59:26.123Z,21.94
2022-12-23T17:02:03.078Z,21.96
2022-12-23T17:04:34.605Z,21.96
2022-12-23T17:07:10.639Z,21.96
2022-12-23T17:09:41.465Z,21.98
2022-12-23T17:12:13.023Z,21.99
2022-12-23T17:14:43.869Z,22.01
2022-12-23T17:17:17.480Z,22.04
2022-12-23T17:19:48.356Z,22.05
2022-12-23T17:22:19.987Z,22.07
2022-12-23T17:24:50.868Z,22.08
2022-12-23T17:27:22.311Z,22.09
2022-12-23T17:29:53.816Z,22.11
2022-12-23T17:32:25.400Z,22.13
2022-12-23T17:34:57.106Z,22.14
2022-12-23T17:37:31.211Z,22.17
2022-12-23T17:40:02.197Z,22.19
2022-12-23T17:42:33.995Z,22.22
2022-12-23T17:45:05.535Z,22.25
2022-12-23T17:47:36.451Z,22.26
2022-12-23T17:50:09.156Z,22.30
2022-12-23T17:52:40.227Z,22.32
2022-12-23T17:55:20.042Z,22.34
2022-12-23T17:57:51.763Z,22.36
2022-12-23T18:00:31.894Z,22.38
2022-12-23T18:03:07.283Z,22.41
2022-12-23T18:05:38.754Z,22.43
2022-12-23T18:08:10.746Z,22.45
2022-12-23T18:10:42.870Z,22.47
2022-12-23T18:13:18.446Z,22.44
2022-12-23T18:15:49.474Z,22.51
2022-12-23T18:18:30.201Z,22.61
2022-12-23T18:21:08.027Z,22.70
2022-12-23T18:23:39.804Z,22.78
2022-12-23T18:26:15.175Z,22.81
2022-12-23T18:28:46.616Z,22.80
2022-12-23T18:31:21.345Z,22.80
2022-12-23T18:33:53.070Z,22.80
2022-12-23T18:36:27.226Z,22.80
2022-12-23T18:38:59.177Z,22.81
2022-12-23T18:41:30.450Z,22.81
2022-12-23T18:44:01.859Z,22.80
2022-12-23T18:46:33.196Z,22.82
2022-12-23T18:49:04.460Z,22.77
2022-12-23T18:51:35.710Z,22.77
2022-12-23T18:54:07.174Z,22.78
2022-12-23T18:56:38.113Z,22.79
2022-12-23T18:59:10.885Z,22.80
2022-12-23T19:01:41.775Z,22.80
2022-12-23T19:04:13.190Z,22.81
2022-12-23T19:06:44.964Z,22.82
2022-12-23T19:09:20.320Z,22.82
2022-12-23T19:11:52.961Z,22.82
2022-12-23T19:14:24.189Z,22.79
2022-12-23T19:16:55.195Z,22.84
2022-12-23T19:19:26.009Z,22.86
2022-12-23T19:21:57.158Z,22.87
2022-12-23T19:24:28.834Z,22.87
2022-12-23T19:26:59.873Z,22.86
2022-12-23T19:29:31.643Z,22.88
2022-12-23T19:32:02.674Z,22.88
2022-12-23T19:34:33.679Z,22.89
2022-12-23T19:37:20.645Z,22.90
2022-12-23T19:39:52.221Z,22.91
2022-12-23T19:42:23.329Z,22.92
2022-12-23T19:44:54.203Z,22.92
2022-12-23T19:47:25.407Z,22.92
2022-12-23T19:49:56.965Z,22.91
2022-12-23T19:52:28.049Z,22.92
2022-12-23T19:54:58.958Z,22.93
2022-12-23T19:57:30.286Z,22.95
2022-12-23T20:00:02.392Z,22.95
2022-12-23T20:02:33.685Z,22.95
2022-12-23T20:05:05.287Z,22.96
2022-12-23T20:07:38.896Z,22.96
2022-12-23T20:10:11.035Z,22.97
2022-12-23T20:12:42.419Z,22.93
2022-12-23T20:15:16.837Z,22.94
2022-12-23T20:17:47.872Z,22.93
2022-12-23T20:20:19.227Z,22.92
2022-12-23T20:22:50.276Z,22.90
2022-12-23T20:25:21.497Z,22.88
2022-12-23T20:27:53.428Z,22.86
2022-12-23T20:30:24.946Z,22.85
2022-12-23T20:32:57.589Z,22.84
2022-12-23T20:35:28.826Z,22.84
2022-12-23T20:38:00.095Z,22.84
2022-12-23T20:40:31.740Z,22.84
2022-12-23T20:43:04.139Z,22.83
2022-12-23T20:45:36.707Z,22.81
2022-12-23T20:48:15.579Z,22.79
2022-12-23T20:50:47.694Z,22.79
2022-12-23T20:53:19.188Z,22.79
2022-12-23T20:55:51.075Z,22.78
2022-12-23T20:58:40.008Z,22.76
2022-12-23T21:01:14.971Z,22.74
2022-12-23T21:03:46.454Z,22.74
2022-12-23T21:06:20.705Z,22.71
2022-12-23T21:08:52.384Z,22.69
2022-12-23T21:11:24.410Z,22.68
2022-12-23T21:13:58.687Z,22.67
2022-12-23T21:16:36.864Z,22.67
2022-12-23T21:19:10.063Z,22.64
2022-12-23T21:21:41.281Z,22.63
2022-12-23T21:24:13.905Z,22.63
2022-12-23T21:26:49.001Z,22.61
2022-12-23T21:29:24.475Z,22.57
2022-12-23T21:31:56.136Z,22.52
2022-12-23T21:34:27.286Z,22.51
2022-12-23T21:36:58.877Z,22.50
2022-12-23T21:39:30.648Z,22.48
2022-12-23T21:42:01.677Z,22.44
2022-12-23T21:44:33.267Z,22.41
2022-12-23T21:47:04.195Z,22.38
2022-12-23T21:49:35.310Z,22.33
2022-12-23T21:52:06.819Z,22.33
2022-12-23T21:54:37.643Z,22.30
2022-12-23T21:57:08.524Z,22.28
2022-12-23T21:59:39.602Z,22.19
2022-12-23T22:02:12.930Z,22.23
2022-12-23T22:04:44.112Z,22.21
2022-12-23T22:07:14.978Z,22.19
2022-12-23T22:09:46.010Z,22.17
2022-12-23T22:12:16.880Z,22.14
2022-12-23T22:14:48.190Z,22.11
2022-12-23T22:17:19.036Z,22.09
2022-12-23T22:19:50.085Z,22.04
2022-12-23T22:22:21.118Z,22.02
2022-12-23T22:24:51.909Z,21.98
2022-12-23T22:27:22.788Z,21.96
2022-12-23T22:29:54.361Z,21.95
2022-12-23T22:32:25.331Z,21.92
2022-12-23T22:34:56.311Z,21.90
2022-12-23T22:37:27.300Z,21.89
2022-12-23T22:39:58.232Z,21.86
2022-12-23T22:42:31.331Z,21.84
2022-12-23T22:45:02.194Z,21.86
2022-12-23T22:47:33.280Z,21.87
2022-12-23T22:50:04.202Z,21.85
2022-12-23T22:52:34.991Z,21.82
2022-12-23T22:55:06.573Z,21.78
2022-12-23T22:57:37.540Z,21.74
2022-12-23T23:00:12.448Z,21.71
2022-12-23T23:02:43.780Z,21.68
2022-12-23T23:05:14.556Z,21.65
2022-12-23T23:07:45.495Z,21.60
2022-12-23T23:10:16.892Z,21.62
2022-12-23T23:12:47.753Z,21.59
2022-12-23T23:15:18.800Z,21.56
2022-12-23T23:17:49.537Z,21.54
2022-12-23T23:20:20.511Z,21.53
2022-12-23T23:22:52.163Z,21.52
2022-12-23T23:25:23.846Z,21.49
2022-12-23T23:27:54.542Z,21.46
2022-12-23T23:30:25.599Z,21.45
2022-12-23T23:32:56.316Z,21.42
2022-12-23T23:35:27.061Z,21.39
2022-12-23T23:37:57.905Z,21.37
2022-12-23T23:40:28.673Z,21.34
2022-12-23T23:42:59.414Z,21.32
2022-12-23T23:45:30.384Z,21.29
2022-12-23T23:48:01.175Z,21.29
2022-12-23T23:50:31.923Z,21.27
2022-12-23T23:53:02.629Z,21.26
2022-12-23T23:55:33.891Z,21.26
2022-12-23T23:58:05.643Z,21.26
